CYXH

Details ICAO CYXH (YXH)
Name MEDICINE HAT
Region Canada
Timezone America/Edmonton (UTC-6.0)
Plans Departing 13
Arriving 10
Stats Elevation 2,352 ft / 717 m (AMSL)
Location 50.017369° -110.719814°
Runways 2
Magnetic Variation 12.331° E
Sunrise 2018-05-23 11:28:11 UTC / 2018-05-23 05:28:11 Local
Sunset 2018-05-24 03:13:59 UTC / 2018-05-23 21:13:59 Local
Advertisement - Login to hide

Runways

ID Width Length Bearing (true) Bearing (mag) Surface Threshold Offset Overrun Length
03 150 ft / 46 m 4,992 ft / 1,522 m 44.52° 32.19° Asphalt 0 ft / 0 m 0 ft / 0 m
09 100 ft / 30 m 2,791 ft / 851 m 106.89° 94.56° Asphalt 0 ft / 0 m 0 ft / 0 m
21 150 ft / 46 m 4,992 ft / 1,522 m 224.53° 212.20° Asphalt 0 ft / 0 m 0 ft / 0 m
27 100 ft / 30 m 2,791 ft / 851 m 286.90° 274.57° Asphalt 0 ft / 0 m 0 ft / 0 m

Map

Weather


0- 5 10 15 20 25 30 35+ Temperature / ° C

Clouds and Precipitation
Forecast for 2018-05-23 18:00 UTC. Updated an hour ago

Ground ~20,000 ft ~40,000 ft Winds

METAR

CYXH 231800Z 11006KT 360V130 30SM FEW088 27/05 A2985 RMK CU2 SLP101 DENSITY ALT 4400FT

TAF

TAF CYXH 231738Z 2318/2406 02008KT P6SM SCT090 PROB40 2319/2323 VRB25G35KT P6SM -TSRA BKN090CB FM232300 12008KT P6SM SCT090 TEMPO 2323/2402 P6SM VCSH BKN090 RMK NXT FCST BY 240000Z

Frequencies

Recorded 124.87 MHz AWOS
Tower 122.20 MHz MF
Warning: Do not use this data for real-world aviation or navigation. No guarantee of current accuracy is given.